Terminal Aerodrome Forecast
Issued by NWS

Home | Current Version | Previous Version | Text Only | Print | Product List | Glossary On
Versions: 1 2 3 4 5 6 7 8 9 10 11 12 13
000
FTUS44 KEPZ 262320
TAFDMN
TAF
KDMN 262320Z 2700/2724 15008KT P6SM VCTS SCT090CB SCT150
     FM270400 05006KT P6SM FEW090 BKN120
     FM271700 15007KT P6SM SCT250=

USA.gov is the U.S. government's official web portal to all federal, state and local government web resources and services.